Venice, FL

8:28 PM EDT on July 27, 2016 (GMT -0400)
Venice | | Change Station

Elev 0 ft 27.07 °N, 82.41 °W | Updated 4 minutes ago

Partly Cloudy
Partly Cloudy
82.9 °F
Feels Like 92 °F
N
0.6
Wind Variable Wind from SSW
Gusts 2.5 mph

Today
High -- | Low -- °F
--% Chance of Precip.
Yesterday
High -- | Low -- °F
Precip. -- in
Pressure 30.02 in
Visibility 10.0 miles
Clouds Few 11000 ft
Heat Index 92 °F
Dew Point 77 °F
Humidity 82%
Rainfall 0.23 in
Snow Depth Not available.
6:51 AM 8:20 PM
Last Quarter, 38% visible
METAR KSRQ 272353Z AUTO 24005KT 10SM FEW110 28/24 A3002 RMK AO2 RAE36 TSE24 SLP165 P0012 60035 T02780244 10361 20256 50005
Pressure 30.02 in
Visibility 10.0 miles
Clouds Few 11000 ft
Heat Index 92 °F
Dew Point 77 °F
Humidity 82%
Rainfall 0.23 in
Snow Depth Not available.
6:51 AM 8:20 PM
Last Quarter, 38% visible
METAR KSRQ 272353Z AUTO 24005KT 10SM FEW110 28/24 A3002 RMK AO2 RAE36 TSE24 SLP165 P0012 60035 T02780244 10361 20256 50005

10-Day Weather Forecast

Almanac

Astronomy

Jul. 27, 2016 Rise Set
Actual Time
Civil Twilight
Nautical Twilight
Astronomical Twilight
Moon
Length of Visible Light
Length of Day
Tomorrow will be .
, % of the Moon is Illuminated

Today's Extremes

State Highs State Lows

Community

WunderPhotos

Upload Photos

1,927,975 photos uploaded!

WunderBlog® & News

Nearby

Air Quality

  Air Quality AQ Index Pollutant
Not available.

Snow Depth

Station Depth Elevation

Earthquake Activity

City Distance Mag. Time & Date
Minimum magnitude displayed is 2.5.

Coastal Water Temperatures

Place Temperature

Stations

Nearby Weather Stations

Station Location Temp. Windchill Dew Point Humidity Wind Precip. Elev Updated Type
                   

Watches & Warnings

There are currently no watches in effect.